createdAt,value
2023-01-21T00:00:26.531Z,1.59
2023-01-21T00:00:57.956Z,1.99
2023-01-21T00:01:29.354Z,1.79
2023-01-21T00:02:00.809Z,1.96
2023-01-21T00:02:32.255Z,2.03
2023-01-21T00:03:03.786Z,1.31
2023-01-21T00:03:35.312Z,1.66
2023-01-21T00:04:06.765Z,1.78
2023-01-21T00:04:38.173Z,1.62
2023-01-21T00:05:09.598Z,1.76
2023-01-21T00:05:41.015Z,1.57
2023-01-21T00:06:12.411Z,1.75
2023-01-21T00:06:43.821Z,1.43
2023-01-21T00:07:15.221Z,1.57
2023-01-21T00:07:46.633Z,2.01
2023-01-21T00:08:18.036Z,1.65
2023-01-21T00:08:49.493Z,1.56
2023-01-21T00:09:20.942Z,1.75
2023-01-21T00:09:52.373Z,1.65
2023-01-21T00:10:23.771Z,1.49
2023-01-21T00:10:55.190Z,1.38
2023-01-21T00:11:26.627Z,1.63
2023-01-21T00:11:58.023Z,1.62
2023-01-21T00:12:29.459Z,1.72
2023-01-21T00:13:00.868Z,2.02
2023-01-21T00:13:32.276Z,1.39
2023-01-21T00:14:03.684Z,1.99
2023-01-21T00:14:35.102Z,1.65
2023-01-21T00:15:06.504Z,1.84
2023-01-21T00:15:37.941Z,1.70
2023-01-21T00:16:09.420Z,1.55
2023-01-21T00:16:40.885Z,1.55
2023-01-21T00:17:12.303Z,1.35
2023-01-21T00:17:43.710Z,1.59
2023-01-21T00:18:15.127Z,1.51
2023-01-21T00:18:46.528Z,2.01
2023-01-21T00:19:17.933Z,1.91
2023-01-21T00:19:49.376Z,1.66
2023-01-21T00:20:20.787Z,1.81
2023-01-21T00:20:52.195Z,1.50
2023-01-21T00:21:23.590Z,1.84
2023-01-21T00:21:55.076Z,1.46
2023-01-21T00:22:26.476Z,1.44
2023-01-21T00:22:57.887Z,1.50
2023-01-21T00:23:29.299Z,1.76
2023-01-21T00:24:00.715Z,1.78
2023-01-21T00:24:32.137Z,1.47
2023-01-21T00:25:03.545Z,1.19
2023-01-21T00:25:34.958Z,1.71
2023-01-21T00:26:06.361Z,1.25
2023-01-21T00:26:37.758Z,1.67
2023-01-21T00:27:09.206Z,1.55
2023-01-21T00:27:40.611Z,1.63
2023-01-21T00:28:12.017Z,1.38
2023-01-21T00:28:43.686Z,1.55
2023-01-21T00:29:15.143Z,1.72
2023-01-21T00:29:46.548Z,1.67
2023-01-21T00:30:18.225Z,1.32
2023-01-21T00:30:52.345Z,1.65
2023-01-21T00:31:24.061Z,1.64
2023-01-21T00:31:55.623Z,1.56
2023-01-21T00:32:27.161Z,1.44
2023-01-21T00:32:58.584Z,1.42
2023-01-21T00:33:30.012Z,1.41
2023-01-21T00:34:01.451Z,1.41
2023-01-21T00:34:32.878Z,1.49
2023-01-21T00:35:04.301Z,1.33
2023-01-21T00:35:35.699Z,1.11
2023-01-21T00:36:07.102Z,1.53
2023-01-21T00:36:38.519Z,1.43
2023-01-21T00:37:09.925Z,1.30
2023-01-21T00:37:41.353Z,1.66
2023-01-21T00:38:12.766Z,1.76
2023-01-21T00:38:44.240Z,1.01
2023-01-21T00:39:15.641Z,1.60
2023-01-21T00:39:47.041Z,1.63
2023-01-21T00:40:18.796Z,1.47
2023-01-21T00:40:50.374Z,1.72
2023-01-21T00:41:21.767Z,1.99
2023-01-21T00:41:53.173Z,1.53
2023-01-21T00:42:24.601Z,1.33
2023-01-21T00:42:55.996Z,1.60
2023-01-21T00:43:27.415Z,1.50
2023-01-21T00:43:58.858Z,1.28
2023-01-21T00:44:30.259Z,1.35
2023-01-21T00:45:01.703Z,1.32
2023-01-21T00:45:33.122Z,1.17
2023-01-21T00:46:04.567Z,1.53
2023-01-21T00:46:36.046Z,1.49
2023-01-21T00:47:07.555Z,1.66
2023-01-21T00:47:38.993Z,1.58
2023-01-21T00:48:10.380Z,1.38
2023-01-21T00:48:41.812Z,1.59
2023-01-21T00:49:13.237Z,1.53
2023-01-21T00:49:44.656Z,1.30
2023-01-21T00:50:16.338Z,1.24
2023-01-21T00:50:47.905Z,1.33
2023-01-21T00:51:19.374Z,1.30
2023-01-21T00:51:50.789Z,1.39
2023-01-21T00:52:22.198Z,1.21
2023-01-21T00:52:53.596Z,1.72
2023-01-21T00:53:25.018Z,1.38
2023-01-21T00:53:56.449Z,1.55
2023-01-21T00:54:27.846Z,1.62
2023-01-21T00:54:59.466Z,1.04
2023-01-21T00:55:30.885Z,1.13
2023-01-21T00:56:02.325Z,1.46
2023-01-21T00:56:34.127Z,1.36
2023-01-21T00:57:05.810Z,1.47
2023-01-21T00:57:37.277Z,1.20
2023-01-21T00:58:08.713Z,1.80
2023-01-21T00:58:40.418Z,1.26
2023-01-21T00:59:12.035Z,1.32
2023-01-21T00:59:43.540Z,1.41
2023-01-21T01:00:15.283Z,1.47
2023-01-21T01:00:46.854Z,1.63
2023-01-21T01:01:18.255Z,1.41
2023-01-21T01:01:49.701Z,1.30
2023-01-21T01:02:21.148Z,1.51
2023-01-21T01:02:52.633Z,0.93
2023-01-21T01:03:24.062Z,1.32
2023-01-21T01:03:55.483Z,1.20
2023-01-21T01:04:26.928Z,1.26
2023-01-21T01:04:58.330Z,1.46
2023-01-21T01:05:29.749Z,1.58
2023-01-21T01:06:01.173Z,1.44
2023-01-21T01:06:32.588Z,1.05
2023-01-21T01:07:04.022Z,1.30
2023-01-21T01:07:35.449Z,2.17
2023-01-21T01:08:06.884Z,1.75
2023-01-21T01:08:38.280Z,1.48
2023-01-21T01:09:09.689Z,1.43
2023-01-21T01:09:41.149Z,1.31
2023-01-21T01:10:12.554Z,1.63
2023-01-21T01:10:43.949Z,1.15
2023-01-21T01:11:15.395Z,1.61
2023-01-21T01:11:46.810Z,1.13
2023-01-21T01:12:18.222Z,1.52
2023-01-21T01:12:49.622Z,1.18
2023-01-21T01:13:21.026Z,1.02
2023-01-21T01:13:52.464Z,1.49
2023-01-21T01:14:23.868Z,1.10
2023-01-21T01:14:55.301Z,1.26
2023-01-21T01:15:26.717Z,1.34
2023-01-21T01:15:58.165Z,1.50
2023-01-21T01:16:29.666Z,1.53
2023-01-21T01:17:01.063Z,1.20
2023-01-21T01:17:32.482Z,1.05
2023-01-21T01:18:03.889Z,1.23
2023-01-21T01:18:35.283Z,1.46
2023-01-21T01:19:06.725Z,1.48
2023-01-21T01:19:38.123Z,1.13
2023-01-21T01:20:09.543Z,0.92
2023-01-21T01:20:40.955Z,1.88
2023-01-21T01:21:12.361Z,1.32
2023-01-21T01:21:43.758Z,1.25
2023-01-21T01:22:15.173Z,1.05
2023-01-21T01:22:46.582Z,1.20
2023-01-21T01:23:17.980Z,1.40
2023-01-21T01:23:49.390Z,1.05
2023-01-21T01:24:20.818Z,1.08
2023-01-21T01:24:52.242Z,0.94
2023-01-21T01:25:23.662Z,1.17
2023-01-21T01:25:55.057Z,1.04
2023-01-21T01:26:26.464Z,1.18
2023-01-21T01:26:57.878Z,1.24
2023-01-21T01:27:29.978Z,1.04
2023-01-21T01:28:01.391Z,1.18
2023-01-21T01:28:32.857Z,0.95
2023-01-21T01:29:04.272Z,1.05
2023-01-21T01:29:35.673Z,1.28
2023-01-21T01:30:07.066Z,1.22
2023-01-21T01:30:38.530Z,1.40
2023-01-21T01:31:10.028Z,1.18
2023-01-21T01:31:41.519Z,1.36
2023-01-21T01:32:12.930Z,1.45
2023-01-21T01:32:44.344Z,1.56
2023-01-21T01:33:15.739Z,1.25
2023-01-21T01:33:47.154Z,1.15
2023-01-21T01:34:18.555Z,1.12
2023-01-21T01:34:49.954Z,1.02
2023-01-21T01:35:21.369Z,1.30
2023-01-21T01:35:52.827Z,0.78
2023-01-21T01:36:24.217Z,1.20
2023-01-21T01:36:55.637Z,1.37
2023-01-21T01:37:27.035Z,1.21
2023-01-21T01:37:58.471Z,1.44
2023-01-21T01:38:29.869Z,1.33
2023-01-21T01:39:01.313Z,1.25
2023-01-21T01:39:32.721Z,1.26
2023-01-21T01:40:04.117Z,1.17
2023-01-21T01:40:35.540Z,1.08
2023-01-21T01:41:06.992Z,1.07
2023-01-21T01:41:38.392Z,1.11
2023-01-21T01:42:09.782Z,0.98
2023-01-21T01:42:41.173Z,0.96
2023-01-21T01:43:12.590Z,1.08
2023-01-21T01:43:43.989Z,1.16
2023-01-21T01:44:15.427Z,1.27
2023-01-21T01:44:46.814Z,1.14
2023-01-21T01:45:18.206Z,1.14
2023-01-21T01:45:49.619Z,1.26
2023-01-21T01:46:21.123Z,0.94
2023-01-21T01:46:52.546Z,1.09
2023-01-21T01:47:23.944Z,0.91
2023-01-21T01:47:55.341Z,1.24
2023-01-21T01:48:26.742Z,1.34
2023-01-21T01:48:58.138Z,1.41
2023-01-21T01:49:29.559Z,1.24
2023-01-21T01:50:00.960Z,1.21
2023-01-21T01:50:32.374Z,1.02
2023-01-21T01:51:03.845Z,1.12
2023-01-21T01:51:35.368Z,1.33
2023-01-21T01:52:06.791Z,0.92
2023-01-21T01:52:38.193Z,0.95
2023-01-21T01:53:09.610Z,1.32
2023-01-21T01:53:41.017Z,0.89
2023-01-21T01:54:12.421Z,1.07
2023-01-21T01:54:43.809Z,1.13
2023-01-21T01:55:15.228Z,1.30
2023-01-21T01:55:46.628Z,1.17
2023-01-21T01:56:18.040Z,1.23
2023-01-21T01:56:49.462Z,1.32
2023-01-21T01:57:20.904Z,0.95
2023-01-21T01:57:52.308Z,1.15
2023-01-21T01:58:23.718Z,1.15
2023-01-21T01:58:55.113Z,1.27
2023-01-21T01:59:26.510Z,1.53
2023-01-21T01:59:57.912Z,1.17
2023-01-21T02:00:29.311Z,0.94
2023-01-21T02:01:00.738Z,1.20
2023-01-21T02:01:32.195Z,1.07
2023-01-21T02:02:03.621Z,1.20
2023-01-21T02:02:35.084Z,1.30
2023-01-21T02:03:06.529Z,1.05
2023-01-21T02:03:37.944Z,1.27
2023-01-21T02:04:09.354Z,1.10
2023-01-21T02:04:40.749Z,0.96
2023-01-21T02:05:12.137Z,1.00
2023-01-21T02:05:43.539Z,1.42
2023-01-21T02:06:14.976Z,1.26
2023-01-21T02:06:46.427Z,1.18
2023-01-21T02:07:17.834Z,0.85
2023-01-21T02:07:49.253Z,0.95
2023-01-21T02:08:20.649Z,1.10
2023-01-21T02:08:52.074Z,0.91
2023-01-21T02:09:23.502Z,1.13
2023-01-21T02:09:54.914Z,0.84
2023-01-21T02:10:26.322Z,0.98
2023-01-21T02:10:57.716Z,0.89
2023-01-21T02:11:29.204Z,1.08
2023-01-21T02:12:00.611Z,1.30
2023-01-21T02:12:32.043Z,1.15
2023-01-21T02:13:03.487Z,0.96
2023-01-21T02:13:34.887Z,1.11
2023-01-21T02:14:06.306Z,1.27
2023-01-21T02:14:37.711Z,1.31
2023-01-21T02:15:09.122Z,1.11
2023-01-21T02:15:40.517Z,0.98
2023-01-21T02:16:12.092Z,1.05
2023-01-21T02:16:43.577Z,1.06
2023-01-21T02:17:14.972Z,0.95
2023-01-21T02:17:46.410Z,1.29
2023-01-21T02:18:17.845Z,0.99
2023-01-21T02:18:49.261Z,0.94
2023-01-21T02:19:20.673Z,0.92
2023-01-21T02:19:52.070Z,0.91
2023-01-21T02:20:23.475Z,0.81
2023-01-21T02:20:54.874Z,1.10
2023-01-21T02:21:26.268Z,1.11
2023-01-21T02:21:57.704Z,1.11
2023-01-21T02:22:29.122Z,1.11
2023-01-21T02:23:00.559Z,1.34
2023-01-21T02:23:31.965Z,1.06
2023-01-21T02:24:03.392Z,1.31
2023-01-21T02:24:34.814Z,1.00
2023-01-21T02:25:06.289Z,1.20
2023-01-21T02:25:37.709Z,1.00
2023-01-21T02:26:09.110Z,0.93
2023-01-21T02:26:40.521Z,1.03
2023-01-21T02:27:11.918Z,0.94
2023-01-21T02:27:43.327Z,1.21
2023-01-21T02:28:14.727Z,1.06
2023-01-21T02:28:46.189Z,1.34
2023-01-21T02:29:17.607Z,1.19
2023-01-21T02:29:49.030Z,0.98
2023-01-21T02:30:20.483Z,1.12
2023-01-21T02:30:51.962Z,1.00
2023-01-21T02:31:23.443Z,0.77
2023-01-21T02:31:54.974Z,0.93
2023-01-21T02:32:26.413Z,1.06
2023-01-21T02:32:57.825Z,1.05
2023-01-21T02:33:29.249Z,1.02
2023-01-21T02:34:00.664Z,0.93
2023-01-21T02:34:32.081Z,0.91
2023-01-21T02:35:03.477Z,1.08
2023-01-21T02:35:34.906Z,1.14
2023-01-21T02:36:06.311Z,0.87
2023-01-21T02:36:37.755Z,1.06
2023-01-21T02:37:09.179Z,1.13
2023-01-21T02:37:40.598Z,0.99
2023-01-21T02:38:11.995Z,1.21
2023-01-21T02:38:43.396Z,1.27
2023-01-21T02:39:14.816Z,0.88
2023-01-21T02:39:46.279Z,1.04
2023-01-21T02:40:17.916Z,1.12
2023-01-21T02:40:49.600Z,1.01
2023-01-21T02:41:21.008Z,1.07
2023-01-21T02:41:52.460Z,1.03
2023-01-21T02:42:23.850Z,0.71
2023-01-21T02:42:55.242Z,0.98
2023-01-21T02:43:26.654Z,1.01
2023-01-21T02:43:58.070Z,1.05
2023-01-21T02:44:29.509Z,0.93
2023-01-21T02:45:00.920Z,0.98
2023-01-21T02:45:32.334Z,1.05
2023-01-21T02:46:03.732Z,1.27
2023-01-21T02:46:35.188Z,0.97
2023-01-21T02:47:06.638Z,0.95
2023-01-21T02:47:38.062Z,0.95
2023-01-21T02:48:09.478Z,1.13
2023-01-21T02:48:40.877Z,1.02
2023-01-21T02:49:12.271Z,0.73
2023-01-21T02:49:43.730Z,0.81
2023-01-21T02:50:15.385Z,0.93
2023-01-21T02:50:47.039Z,1.06
2023-01-21T02:51:18.523Z,0.73
2023-01-21T02:51:50.001Z,0.93
2023-01-21T02:52:21.400Z,0.93
2023-01-21T02:52:52.808Z,0.83
2023-01-21T02:53:24.212Z,0.75
2023-01-21T02:53:55.615Z,0.99
2023-01-21T02:54:27.018Z,0.91
2023-01-21T02:54:58.456Z,0.67
2023-01-21T02:55:29.860Z,1.08
2023-01-21T02:56:01.347Z,0.91
2023-01-21T02:56:32.738Z,1.04
2023-01-21T02:57:04.160Z,1.18
2023-01-21T02:57:35.564Z,0.95
2023-01-21T02:58:06.955Z,1.05
2023-01-21T02:58:38.348Z,1.18
2023-01-21T02:59:09.738Z,0.87
2023-01-21T02:59:41.132Z,1.10
2023-01-21T03:00:12.566Z,1.03
2023-01-21T03:00:44.036Z,0.85
2023-01-21T03:01:15.514Z,1.14
2023-01-21T03:01:46.963Z,0.75
2023-01-21T03:02:18.470Z,0.82
2023-01-21T03:02:49.913Z,0.64
2023-01-21T03:03:21.313Z,1.25
2023-01-21T03:03:52.711Z,0.92
2023-01-21T03:04:24.106Z,0.66
2023-01-21T03:04:55.510Z,1.12
2023-01-21T03:05:26.953Z,0.98
2023-01-21T03:05:58.355Z,1.17
2023-01-21T03:06:29.787Z,0.93
2023-01-21T03:07:01.177Z,0.93
2023-01-21T03:07:32.589Z,0.88
2023-01-21T03:08:04.044Z,0.92
2023-01-21T03:08:35.438Z,1.24
2023-01-21T03:09:06.911Z,1.04
2023-01-21T03:09:38.331Z,1.03
2023-01-21T03:10:09.729Z,0.87
2023-01-21T03:10:41.168Z,1.11
2023-01-21T03:11:12.571Z,1.02
2023-01-21T03:11:43.997Z,1.21
2023-01-21T03:12:15.402Z,0.75
2023-01-21T03:12:46.818Z,0.88
2023-01-21T03:13:18.232Z,0.96
2023-01-21T03:13:49.632Z,0.84
2023-01-21T03:14:21.049Z,0.91
2023-01-21T03:14:52.456Z,0.68
2023-01-21T03:15:23.854Z,0.54
2023-01-21T03:15:55.406Z,0.81
2023-01-21T03:16:26.906Z,0.96
2023-01-21T03:16:58.323Z,0.91
2023-01-21T03:17:29.736Z,1.03
2023-01-21T03:18:01.137Z,1.01
2023-01-21T03:18:32.607Z,0.88
2023-01-21T03:19:03.999Z,1.04
2023-01-21T03:19:35.417Z,0.72
2023-01-21T03:20:06.900Z,0.91
2023-01-21T03:20:38.301Z,1.20
2023-01-21T03:21:09.749Z,1.28
2023-01-21T03:21:41.168Z,1.15
2023-01-21T03:22:12.558Z,0.91
2023-01-21T03:22:43.978Z,1.06
2023-01-21T03:23:15.419Z,1.05
2023-01-21T03:23:46.827Z,0.98
2023-01-21T03:24:18.286Z,0.98
2023-01-21T03:24:49.714Z,0.73
2023-01-21T03:25:21.126Z,0.98
2023-01-21T03:25:52.543Z,0.59
2023-01-21T03:26:23.996Z,0.87
2023-01-21T03:26:55.397Z,0.70
2023-01-21T03:27:26.979Z,0.98
2023-01-21T03:27:58.390Z,1.02
2023-01-21T03:28:29.784Z,0.95
2023-01-21T03:29:01.465Z,0.99
2023-01-21T03:29:32.863Z,0.90
2023-01-21T03:30:04.287Z,0.83
2023-01-21T03:30:35.697Z,0.89
2023-01-21T03:31:07.226Z,1.00
2023-01-21T03:31:38.794Z,0.98
2023-01-21T03:32:10.219Z,1.02
2023-01-21T03:32:41.621Z,0.77
2023-01-21T03:33:13.067Z,0.76
2023-01-21T03:33:46.660Z,0.76
2023-01-21T03:34:18.233Z,0.79
2023-01-21T03:34:49.635Z,0.81
2023-01-21T03:35:21.054Z,0.82
2023-01-21T03:35:52.448Z,0.99
2023-01-21T03:36:23.845Z,0.65
2023-01-21T03:36:55.253Z,0.82
2023-01-21T03:37:26.652Z,1.28
2023-01-21T03:37:58.049Z,0.66
2023-01-21T03:38:29.494Z,0.57
2023-01-21T03:39:00.885Z,0.78
2023-01-21T03:39:32.294Z,0.90
2023-01-21T03:40:03.698Z,0.98
2023-01-21T03:40:35.111Z,0.78
2023-01-21T03:41:06.501Z,0.87
2023-01-21T03:41:37.895Z,0.86
2023-01-21T03:42:09.342Z,0.81
2023-01-21T03:42:40.765Z,0.99
2023-01-21T03:43:12.263Z,1.26
2023-01-21T03:43:43.695Z,0.87
2023-01-21T03:44:15.099Z,0.78
2023-01-21T03:44:46.523Z,0.65
2023-01-21T03:45:17.923Z,1.06
2023-01-21T03:45:49.387Z,1.09
2023-01-21T03:46:20.834Z,0.73
2023-01-21T03:46:52.250Z,0.71
2023-01-21T03:47:23.701Z,0.70
2023-01-21T03:47:55.106Z,0.57
2023-01-21T03:48:26.512Z,0.81
2023-01-21T03:48:57.968Z,0.81
2023-01-21T03:49:29.389Z,0.97
2023-01-21T03:50:00.816Z,0.86
2023-01-21T03:50:32.239Z,0.93
2023-01-21T03:51:03.681Z,0.87
2023-01-21T03:51:35.157Z,0.77
2023-01-21T03:52:06.591Z,0.76
2023-01-21T03:52:38.036Z,0.80
2023-01-21T03:53:09.449Z,0.87
2023-01-21T03:53:40.856Z,0.98
2023-01-21T03:54:12.275Z,1.05
2023-01-21T03:54:43.690Z,0.84
2023-01-21T03:55:15.083Z,0.87
2023-01-21T03:55:46.490Z,0.92
2023-01-21T03:56:17.913Z,0.87
2023-01-21T03:56:49.326Z,0.59
2023-01-21T03:57:20.738Z,0.84
2023-01-21T03:57:52.145Z,1.02
2023-01-21T03:58:23.543Z,0.66
2023-01-21T03:58:54.950Z,0.90
2023-01-21T03:59:26.350Z,0.83
2023-01-21T03:59:57.763Z,0.72
2023-01-21T04:00:29.161Z,0.81
2023-01-21T04:01:00.690Z,0.97
2023-01-21T04:01:32.118Z,1.20
2023-01-21T04:02:03.564Z,0.89
2023-01-21T04:02:34.988Z,0.82
2023-01-21T04:03:06.437Z,0.88
2023-01-21T04:03:37.841Z,0.69
2023-01-21T04:04:09.329Z,0.70
2023-01-21T04:04:40.750Z,0.82
2023-01-21T04:05:12.198Z,0.84
2023-01-21T04:05:43.620Z,1.08
2023-01-21T04:06:15.035Z,1.04
2023-01-21T04:06:46.425Z,1.08
2023-01-21T04:07:17.871Z,0.66
2023-01-21T04:07:49.280Z,0.96
2023-01-21T04:08:20.703Z,0.98
2023-01-21T04:08:52.104Z,0.70
2023-01-21T04:09:23.495Z,0.73
2023-01-21T04:09:54.890Z,0.84
2023-01-21T04:10:26.374Z,1.02
2023-01-21T04:10:57.772Z,0.88
2023-01-21T04:11:29.166Z,0.82
2023-01-21T04:12:00.570Z,0.85
2023-01-21T04:12:31.984Z,0.91
2023-01-21T04:13:03.383Z,0.69
2023-01-21T04:13:34.805Z,0.66
2023-01-21T04:14:06.204Z,0.79
2023-01-21T04:14:37.628Z,0.73
2023-01-21T04:15:09.039Z,0.88
2023-01-21T04:15:40.494Z,0.89
2023-01-21T04:16:11.913Z,0.71
2023-01-21T04:16:43.395Z,0.57
2023-01-21T04:17:14.818Z,0.68
2023-01-21T04:17:46.245Z,0.78
2023-01-21T04:18:17.656Z,0.86
2023-01-21T04:18:49.074Z,1.08
2023-01-21T04:19:20.481Z,0.73
2023-01-21T04:19:51.875Z,0.74
2023-01-21T04:20:23.265Z,0.67
2023-01-21T04:20:54.724Z,0.71
2023-01-21T04:21:26.125Z,0.80
2023-01-21T04:21:57.516Z,0.83
2023-01-21T04:22:28.966Z,0.91
2023-01-21T04:23:00.366Z,0.99
2023-01-21T04:23:31.794Z,0.74
2023-01-21T04:24:03.190Z,1.07
2023-01-21T04:24:34.803Z,0.70
2023-01-21T04:25:06.268Z,1.06
2023-01-21T04:25:37.676Z,0.82
2023-01-21T04:26:09.310Z,0.72
2023-01-21T04:26:40.716Z,0.79
2023-01-21T04:27:12.144Z,0.78
2023-01-21T04:27:43.544Z,0.84
2023-01-21T04:28:14.944Z,0.82
2023-01-21T04:28:46.367Z,0.63
2023-01-21T04:29:17.778Z,0.65
2023-01-21T04:29:49.208Z,1.00
2023-01-21T04:30:20.643Z,1.06
2023-01-21T04:30:52.220Z,0.89
2023-01-21T04:31:23.756Z,0.97
2023-01-21T04:31:55.257Z,0.93
2023-01-21T04:32:26.729Z,0.70
2023-01-21T04:32:58.167Z,0.60
2023-01-21T04:33:29.578Z,0.71
2023-01-21T04:34:00.985Z,0.59
2023-01-21T04:34:32.387Z,0.72
2023-01-21T04:35:03.780Z,0.65
2023-01-21T04:35:35.381Z,0.90
2023-01-21T04:36:06.778Z,0.70
2023-01-21T04:36:38.210Z,0.78
2023-01-21T04:37:09.604Z,0.73
2023-01-21T04:37:41.029Z,0.73
2023-01-21T04:38:12.452Z,0.98
2023-01-21T04:38:43.854Z,0.89
2023-01-21T04:39:15.245Z,0.74
2023-01-21T04:39:46.638Z,0.98
2023-01-21T04:40:18.295Z,0.82
2023-01-21T04:40:49.910Z,0.80
2023-01-21T04:41:22.549Z,0.83
2023-01-21T04:41:55.384Z,0.90
2023-01-21T04:42:26.806Z,0.79
2023-01-21T04:42:58.216Z,0.61
2023-01-21T04:43:29.648Z,0.74
2023-01-21T04:44:01.066Z,0.79
2023-01-21T04:44:32.469Z,0.99
2023-01-21T04:45:03.881Z,0.86
2023-01-21T04:45:35.348Z,0.84
2023-01-21T04:46:06.822Z,1.09
2023-01-21T04:46:38.249Z,0.78
2023-01-21T04:47:09.688Z,0.67
2023-01-21T04:47:41.102Z,0.64
2023-01-21T04:48:12.519Z,0.81
2023-01-21T04:48:43.928Z,0.82
2023-01-21T04:49:15.321Z,0.66
2023-01-21T04:49:46.714Z,0.62
2023-01-21T04:50:18.308Z,0.51
2023-01-21T04:50:49.931Z,0.95
2023-01-21T04:51:21.423Z,0.56
2023-01-21T04:51:52.966Z,0.79
2023-01-21T04:52:24.404Z,0.65
2023-01-21T04:52:55.801Z,0.79
2023-01-21T04:53:27.199Z,1.09
2023-01-21T04:53:58.596Z,0.75
2023-01-21T04:54:29.994Z,0.68
2023-01-21T04:55:01.386Z,0.76
2023-01-21T04:55:32.807Z,0.69
2023-01-21T04:56:04.211Z,0.95
2023-01-21T04:56:35.621Z,0.63
2023-01-21T04:57:07.015Z,0.73
2023-01-21T04:57:38.447Z,0.90
2023-01-21T04:58:09.882Z,0.66
2023-01-21T04:58:41.280Z,0.80
2023-01-21T04:59:12.694Z,0.91
2023-01-21T04:59:44.087Z,0.85
2023-01-21T05:00:15.764Z,0.80
2023-01-21T05:00:47.377Z,0.76
2023-01-21T05:01:18.830Z,0.74
2023-01-21T05:01:50.258Z,0.84
2023-01-21T05:02:21.798Z,0.75
2023-01-21T05:02:53.246Z,0.83
2023-01-21T05:03:24.652Z,0.61
2023-01-21T05:03:56.055Z,0.96
2023-01-21T05:04:27.454Z,0.70
2023-01-21T05:04:58.864Z,0.76
2023-01-21T05:05:30.261Z,0.75
2023-01-21T05:06:01.659Z,0.60
2023-01-21T05:06:33.078Z,0.79
2023-01-21T05:07:04.495Z,0.78
2023-01-21T05:07:35.897Z,0.64
2023-01-21T05:08:07.350Z,0.60
2023-01-21T05:08:38.756Z,0.63
2023-01-21T05:09:10.154Z,0.73
2023-01-21T05:09:41.575Z,1.05
2023-01-21T05:10:12.990Z,0.85
2023-01-21T05:10:44.377Z,0.87
2023-01-21T05:11:15.801Z,0.97
2023-01-21T05:11:47.207Z,0.86
2023-01-21T05:12:18.613Z,0.87
2023-01-21T05:12:50.028Z,0.80
2023-01-21T05:13:21.458Z,0.80
2023-01-21T05:13:52.870Z,0.84
2023-01-21T05:14:24.380Z,0.71
2023-01-21T05:14:55.798Z,0.57
2023-01-21T05:15:27.289Z,0.86
2023-01-21T05:15:58.720Z,0.75
2023-01-21T05:16:30.286Z,0.70
2023-01-21T05:17:01.770Z,0.76
2023-01-21T05:17:33.174Z,0.85
2023-01-21T05:18:04.591Z,0.72
2023-01-21T05:18:36.031Z,0.98
2023-01-21T05:19:07.451Z,0.76
2023-01-21T05:19:38.873Z,0.96
2023-01-21T05:20:10.283Z,0.80
2023-01-21T05:20:41.713Z,0.61
2023-01-21T05:21:13.111Z,0.66
2023-01-21T05:21:44.527Z,1.03
2023-01-21T05:22:15.938Z,0.80
2023-01-21T05:22:47.359Z,0.90
2023-01-21T05:23:18.760Z,0.73
2023-01-21T05:23:50.269Z,0.83
2023-01-21T05:24:21.661Z,0.76
2023-01-21T05:24:53.106Z,0.65
2023-01-21T05:25:24.497Z,0.60
2023-01-21T05:25:55.927Z,0.64
2023-01-21T05:26:27.334Z,0.68
2023-01-21T05:26:58.726Z,1.09
2023-01-21T05:27:30.136Z,0.81
2023-01-21T05:28:01.547Z,0.82
2023-01-21T05:28:32.972Z,0.57
2023-01-21T05:29:04.437Z,0.76
2023-01-21T05:29:35.829Z,0.81
2023-01-21T05:30:07.239Z,0.75
2023-01-21T05:30:40.702Z,0.81
2023-01-21T05:31:12.826Z,0.72
2023-01-21T05:31:44.318Z,0.81
2023-01-21T05:32:15.810Z,0.82
2023-01-21T05:32:47.230Z,0.77
2023-01-21T05:33:18.624Z,0.79
2023-01-21T05:33:50.045Z,0.91
2023-01-21T05:34:21.479Z,1.06
2023-01-21T05:34:52.889Z,0.91
2023-01-21T05:35:24.318Z,0.73
2023-01-21T05:35:55.733Z,0.63
2023-01-21T05:36:27.146Z,0.42
2023-01-21T05:36:58.567Z,0.53
2023-01-21T05:37:30.031Z,0.38
2023-01-21T05:38:01.427Z,0.85
2023-01-21T05:38:32.840Z,0.64
2023-01-21T05:39:04.239Z,0.82
2023-01-21T05:39:35.697Z,0.76
2023-01-21T05:40:07.129Z,0.61
2023-01-21T05:40:38.562Z,0.59
2023-01-21T05:41:09.967Z,0.76
2023-01-21T05:41:41.374Z,0.74
2023-01-21T05:42:12.764Z,0.83
2023-01-21T05:42:44.203Z,0.79
2023-01-21T05:43:15.623Z,0.86
2023-01-21T05:43:47.049Z,0.81
2023-01-21T05:44:18.486Z,0.71
2023-01-21T05:44:49.930Z,0.79
2023-01-21T05:45:21.329Z,0.79
2023-01-21T05:45:52.798Z,0.76
2023-01-21T05:46:24.265Z,0.78
2023-01-21T05:46:55.669Z,0.54
2023-01-21T05:47:27.082Z,1.05
2023-01-21T05:47:58.481Z,1.11
2023-01-21T05:48:29.897Z,0.55
2023-01-21T05:49:01.299Z,0.71
2023-01-21T05:49:32.718Z,0.69
2023-01-21T05:50:04.161Z,0.49
2023-01-21T05:50:35.555Z,0.57
2023-01-21T05:51:06.992Z,0.70
2023-01-21T05:51:38.463Z,0.84
2023-01-21T05:52:09.872Z,0.62
2023-01-21T05:52:41.266Z,0.69
2023-01-21T05:53:12.662Z,0.51
2023-01-21T05:53:44.076Z,0.70
2023-01-21T05:54:15.526Z,0.52
2023-01-21T05:55:00.969Z,0.65
2023-01-21T05:55:33.453Z,0.70
2023-01-21T05:56:04.853Z,0.95
2023-01-21T05:56:36.274Z,0.79
2023-01-21T05:57:07.674Z,0.78
2023-01-21T05:57:42.156Z,0.74
2023-01-21T05:58:13.560Z,0.87
2023-01-21T05:58:45.018Z,0.72
2023-01-21T05:59:16.581Z,0.70
2023-01-21T05:59:48.001Z,0.64
2023-01-21T06:00:19.793Z,0.70
2023-01-21T06:00:51.308Z,0.80
2023-01-21T06:01:22.700Z,0.84
2023-01-21T06:01:54.100Z,0.62
2023-01-21T06:02:25.518Z,0.57
2023-01-21T06:02:56.953Z,0.75
2023-01-21T06:03:28.401Z,0.74
2023-01-21T06:03:59.839Z,0.69
2023-01-21T06:04:31.251Z,0.81
2023-01-21T06:05:02.763Z,0.77
2023-01-21T06:05:34.226Z,0.70
2023-01-21T06:06:05.656Z,0.70
2023-01-21T06:06:37.074Z,0.66
2023-01-21T06:07:08.472Z,0.54
2023-01-21T06:07:39.879Z,0.51
2023-01-21T06:08:11.303Z,0.74
2023-01-21T06:08:42.732Z,0.81
2023-01-21T06:09:14.174Z,0.67
2023-01-21T06:09:45.581Z,0.67
2023-01-21T06:10:17.264Z,0.73
2023-01-21T06:10:48.810Z,0.68
2023-01-21T06:11:20.219Z,0.64
2023-01-21T06:11:51.635Z,0.68
2023-01-21T06:12:24.764Z,0.74
2023-01-21T06:12:56.290Z,0.78
2023-01-21T06:13:27.697Z,0.66
2023-01-21T06:13:59.094Z,0.71
2023-01-21T06:14:30.510Z,0.73
2023-01-21T06:15:01.924Z,0.66
2023-01-21T06:15:33.342Z,0.54
2023-01-21T06:16:04.853Z,0.60
2023-01-21T06:16:36.307Z,0.47
2023-01-21T06:17:07.728Z,0.65
2023-01-21T06:17:39.153Z,0.61
2023-01-21T06:18:10.547Z,0.82
2023-01-21T06:18:41.964Z,0.61
2023-01-21T06:19:13.365Z,0.57
2023-01-21T06:19:44.817Z,0.58
2023-01-21T06:20:16.433Z,0.66
2023-01-21T06:20:48.010Z,0.53
2023-01-21T06:21:19.424Z,0.65
2023-01-21T06:21:50.839Z,0.45
2023-01-21T06:22:22.233Z,0.63
2023-01-21T06:22:53.656Z,0.57
2023-01-21T06:23:25.049Z,0.63
2023-01-21T06:23:56.460Z,0.68
2023-01-21T06:24:27.869Z,0.77
2023-01-21T06:24:59.306Z,0.86
2023-01-21T06:25:30.724Z,0.68
2023-01-21T06:26:02.149Z,0.71
2023-01-21T06:26:33.571Z,0.63
2023-01-21T06:27:04.985Z,0.68
2023-01-21T06:27:36.398Z,0.69
2023-01-21T06:28:07.790Z,0.65
2023-01-21T06:28:39.182Z,0.64
2023-01-21T06:29:10.580Z,0.47
2023-01-21T06:29:42.001Z,0.56
2023-01-21T06:30:13.442Z,0.63
2023-01-21T06:30:44.896Z,0.72
2023-01-21T06:31:16.390Z,0.64
2023-01-21T06:31:47.967Z,0.54
2023-01-21T06:32:19.418Z,0.46
2023-01-21T06:32:50.817Z,0.57
2023-01-21T06:33:22.209Z,0.40
2023-01-21T06:33:53.625Z,0.73
2023-01-21T06:34:25.014Z,0.54
2023-01-21T06:34:56.413Z,0.77
2023-01-21T06:35:27.902Z,0.82
2023-01-21T06:35:59.353Z,0.77
2023-01-21T06:36:30.754Z,0.60
2023-01-21T06:37:02.149Z,0.62
2023-01-21T06:37:33.556Z,0.70
2023-01-21T06:38:04.985Z,0.60
2023-01-21T06:38:36.382Z,0.51
2023-01-21T06:39:07.769Z,0.60
2023-01-21T06:39:39.186Z,0.47
2023-01-21T06:40:10.594Z,0.45
2023-01-21T06:40:42.026Z,0.58
2023-01-21T06:41:13.458Z,0.88
2023-01-21T06:41:44.854Z,0.66
2023-01-21T06:42:16.242Z,0.82
2023-01-21T06:42:47.638Z,0.76
2023-01-21T06:43:19.046Z,0.49
2023-01-21T06:43:50.439Z,0.55
2023-01-21T06:44:21.867Z,0.67
2023-01-21T06:44:53.269Z,0.79
2023-01-21T06:45:24.694Z,0.68
2023-01-21T06:45:56.129Z,0.45
2023-01-21T06:46:27.654Z,0.63
2023-01-21T06:47:01.205Z,0.82
2023-01-21T06:47:32.977Z,0.49
2023-01-21T06:48:04.389Z,0.43
2023-01-21T06:48:35.826Z,0.51
2023-01-21T06:49:07.218Z,0.54
2023-01-21T06:49:38.609Z,0.49
2023-01-21T06:50:10.006Z,0.68
2023-01-21T06:50:41.412Z,0.80
2023-01-21T06:51:12.879Z,0.53
2023-01-21T06:51:44.352Z,0.70
2023-01-21T06:52:15.746Z,0.66
2023-01-21T06:52:47.154Z,0.76
2023-01-21T06:53:18.604Z,0.81
2023-01-21T06:53:49.999Z,0.67
2023-01-21T06:54:21.406Z,0.84
2023-01-21T06:54:52.835Z,0.83
2023-01-21T06:55:24.228Z,0.55
2023-01-21T06:55:55.646Z,0.62
2023-01-21T06:56:27.038Z,0.62
2023-01-21T06:56:58.446Z,0.66
2023-01-21T06:57:29.830Z,0.72
2023-01-21T06:58:01.234Z,0.63
2023-01-21T06:58:32.670Z,0.50
2023-01-21T06:59:04.087Z,0.59